Time;durP1;ratioP1;P1;durP2;ratioP2;P2;SDS_P1;SDS_P2;PMS_P1;PMS_P2;Temp;Humidity;BMP_temperature;BMP_pressure;BME280_temperature;BME280_humidity;BME280_pressure;Samples;Min_cycle;Max_cycle;Signal;HPM_P1;HPM_P2
2023/05/06 00:02:03;;;;;;;1.83;1.40;;;;;;;;;;5057223;28;20056;-34
2023/05/06 00:04:29;;;;;;;1.70;1.55;;;19.50;71.40;;;;;;5072463;28;20044;-37
2023/05/06 00:06:56;;;;;;;1.80;1.60;;;19.50;57.00;;;;;;5072533;28;20056;-33
2023/05/06 00:09:23;;;;;;;1.60;1.40;;;18.30;69.70;;;;;;5067528;28;20056;-37
2023/05/06 00:11:51;;;;;;;1.48;1.38;;;19.30;71.20;;;;;;5052743;28;20078;-37
2023/05/06 00:14:19;;;;;;;1.65;1.42;;;19.40;60.30;;;;;;5052345;28;20079;-34
2023/05/06 00:16:46;;;;;;;1.58;1.42;;;18.80;70.50;;;;;;5052427;28;20557;-38
2023/05/06 00:19:13;;;;;;;1.23;1.13;;;19.00;59.30;;;;;;5052026;28;20132;-33
2023/05/06 00:21:40;;;;;;;1.60;1.33;;;;;;;;;;5052270;28;20135;-38
2023/05/06 00:24:07;;;;;;;1.50;1.40;;;;;;;;;;5055845;28;20115;-33
2023/05/06 00:26:34;;;;;;;1.40;1.30;;;19.60;70.40;;;;;;5071729;28;20080;-36
2023/05/06 00:29:00;;;;;;;1.77;1.50;;;19.60;70.50;;;;;;5072151;28;20114;-36
2023/05/06 00:31:28;;;;;;;1.52;1.30;;;19.30;52.80;;;;;;5072099;28;20132;-33
2023/05/06 00:33:55;;;;;;;1.33;1.23;;;19.20;55.60;;;;;;5071689;28;20099;-39
2023/05/06 00:36:22;;;;;;;1.40;1.30;;;19.10;71.10;;;;;;5071506;28;20068;-37
2023/05/06 00:38:49;;;;;;;1.80;1.30;;;;;;;;;;5071022;28;20486;-34
2023/05/06 00:41:16;;;;;;;1.27;1.17;;;19.30;70.30;;;;;;5071918;28;20139;-35
2023/05/06 00:43:43;;;;;;;1.73;1.42;;;19.00;56.30;;;;;;5071583;28;20048;-36
2023/05/06 00:46:10;;;;;;;1.85;1.40;;;19.20;52.80;;;;;;5064842;28;20043;-35
2023/05/06 00:48:38;;;;;;;1.70;1.40;;;19.40;71.30;;;;;;5071873;28;20044;-34
2023/05/06 00:51:05;;;;;;;1.33;1.20;;;19.30;70.80;;;;;;5071697;28;20132;-37
2023/05/06 00:53:32;;;;;;;1.80;1.40;;;;;;;;;;5070929;28;20044;-34
2023/05/06 00:55:59;;;;;;;1.77;1.48;;;19.50;70.50;;;;;;5071987;28;20047;-37
2023/05/06 00:58:26;;;;;;;1.45;1.30;;;;;;;;;;5071721;28;20088;-37
2023/05/06 01:00:54;;;;;;;1.70;1.40;;;;;;;;;;5071727;28;20246;-35
2023/05/06 01:03:21;;;;;;;1.50;1.30;;;19.70;69.40;;;;;;5071386;28;20054;-34
2023/05/06 01:05:51;;;;;;;1.30;1.20;;;19.50;71.40;;;;;;5072000;28;20102;-35
2023/05/06 01:08:21;;;;;;;1.63;1.35;;;18.30;52.60;;;;;;5071372;28;20414;-35
2023/05/06 01:10:52;;;;;;;1.60;1.40;;;19.10;71.00;;;;;;5071673;28;20055;-37
2023/05/06 01:13:21;;;;;;;2.47;1.42;;;18.30;61.20;;;;;;5071201;28;20507;-36
2023/05/06 01:15:49;;;;;;;1.58;1.38;;;19.10;71.20;;;;;;5071863;28;20079;-35
2023/05/06 01:18:17;;;;;;;1.60;1.20;;;19.20;52.80;;;;;;5071821;28;20068;-36
2023/05/06 01:20:44;;;;;;;1.65;1.30;;;19.70;71.60;;;;;;5071248;28;20056;-36
2023/05/06 01:23:13;;;;;;;2.00;1.30;;;19.60;53.00;;;;;;5060173;28;20128;-36
2023/05/06 01:25:40;;;;;;;1.40;1.30;;;18.40;70.00;;;;;;5051587;28;20128;-35
2023/05/06 01:28:09;;;;;;;1.80;1.30;;;;;;;;;;5051396;28;20524;-33
2023/05/06 01:30:39;;;;;;;1.52;1.30;;;18.30;70.30;;;;;;5051571;28;20045;-36
2023/05/06 01:33:08;;;;;;;1.42;1.33;;;19.10;52.80;;;;;;5050985;28;20045;-36
2023/05/06 01:35:39;;;;;;;1.50;1.40;;;18.60;71.10;;;;;;5051520;28;20508;-36
2023/05/06 01:38:09;;;;;;;1.52;1.40;;;19.50;70.60;;;;;;5071074;28;20497;-37
2023/05/06 01:40:37;;;;;;;1.88;1.40;;;20.00;64.70;;;;;;5075342;28;20132;-35
2023/05/06 01:43:04;;;;;;;1.30;1.20;;;19.10;52.80;;;;;;5074980;28;20436;-37
2023/05/06 01:45:31;;;;;;;1.50;1.40;;;;;;;;;;5075781;28;20468;-34
2023/05/06 01:47:58;;;;;;;1.70;1.50;;;18.70;70.20;;;;;;5075256;28;20141;-35
2023/05/06 01:50:25;;;;;;;1.75;1.42;;;20.20;71.10;;;;;;5075184;28;20045;-35
2023/05/06 01:52:58;;;;;;;1.60;1.30;;;19.40;70.60;;;;;;5074280;28;20115;-36
2023/05/06 01:55:25;;;;;;;1.38;1.27;;;19.50;71.30;;;;;;5075070;28;20660;-35
2023/05/06 01:57:53;;;;;;;1.23;1.13;;;19.90;71.00;;;;;;5073754;28;20456;-33
2023/05/06 02:00:20;;;;;;;1.90;1.40;;;19.20;70.90;;;;;;5074611;28;20060;-35
2023/05/06 02:02:47;;;;;;;1.70;1.50;;;18.50;70.40;;;;;;5074785;28;20125;-35
2023/05/06 02:05:14;;;;;;;1.55;1.45;;;;;;;;;;5074742;28;20055;-33
2023/05/06 02:07:41;;;;;;;1.30;1.20;;;;;;;;;;5063956;28;20391;-39
2023/05/06 02:10:08;;;;;;;1.30;1.20;;;19.00;52.70;;;;;;5054305;28;20071;-33
2023/05/06 02:12:35;;;;;;;1.30;1.20;;;19.00;70.90;;;;;;5054594;28;20045;-40
2023/05/06 02:15:04;;;;;;;1.30;1.10;;;19.00;52.70;;;;;;5054593;28;20440;-36
2023/05/06 02:17:30;;;;;;;1.23;1.13;;;19.10;58.00;;;;;;5055090;28;20467;-36
2023/05/06 02:19:57;;;;;;;1.50;1.38;;;19.00;71.20;;;;;;5054770;28;20049;-35
2023/05/06 02:22:24;;;;;;;1.40;1.20;;;19.20;70.60;;;;;;5064293;28;20561;-38
2023/05/06 02:24:51;;;;;;;1.50;1.40;;;;;;;;;;5074794;28;20135;-35
2023/05/06 02:27:17;;;;;;;1.45;1.20;;;19.10;70.50;;;;;;5074731;28;20048;-35
2023/05/06 02:29:44;;;;;;;1.30;1.20;;;18.20;70.10;;;;;;5074100;28;20676;-36
2023/05/06 02:32:12;;;;;;;0.98;0.98;;;19.40;63.90;;;;;;5074256;28;20044;-37
2023/05/06 02:34:39;;;;;;;1.23;1.08;;;19.20;71.00;;;;;;5074600;28;20132;-34
2023/05/06 02:37:06;;;;;;;1.38;1.10;;;18.70;70.40;;;;;;5071023;28;20049;-37
2023/05/06 02:39:33;;;;;;;0.93;0.93;;;;;;;;;;5073962;28;20131;-36
2023/05/06 02:42:01;;;;;;;1.10;1.00;;;;;;;;;;5074203;28;20131;-38
2023/05/06 02:44:27;;;;;;;1.20;1.10;;;18.60;70.30;;;;;;5073817;28;20052;-37
2023/05/06 02:46:54;;;;;;;1.17;1.08;;;19.30;70.70;;;;;;5074270;28;20059;-38
2023/05/06 02:49:22;;;;;;;1.05;0.95;;;18.90;52.70;;;;;;5073420;28;20141;-36
2023/05/06 02:51:49;;;;;;;1.20;1.10;;;19.90;56.30;;;;;;5073473;28;20055;-37
2023/05/06 02:54:16;;;;;;;1.40;1.20;;;19.60;71.30;;;;;;5074210;28;20052;-35
2023/05/06 02:56:45;;;;;;;1.20;1.10;;;;;;;;;;5073663;28;20120;-35
2023/05/06 02:59:12;;;;;;;1.20;1.10;;;;;;;;;;5074072;28;20052;-36
2023/05/06 03:01:39;;;;;;;1.33;1.10;;;18.00;63.30;;;;;;5073956;28;20131;-34
2023/05/06 03:04:06;;;;;;;1.17;1.08;;;19.60;55.50;;;;;;5073347;28;20497;-35
2023/05/06 03:06:34;;;;;;;2.25;1.08;;;19.60;70.90;;;;;;5073365;28;20062;-36
2023/05/06 03:09:01;;;;;;;1.38;1.00;;;;;;;;;;5073642;28;20438;-36
2023/05/06 03:11:30;;;;;;;1.25;1.08;;;19.30;70.80;;;;;;5073254;28;20536;-37
2023/05/06 03:13:56;;;;;;;0.98;0.98;;;19.30;70.70;;;;;;5073655;28;20052;-35
2023/05/06 03:16:23;;;;;;;1.33;0.93;;;18.40;70.80;;;;;;5073596;28;20523;-37
2023/05/06 03:18:50;;;;;;;1.10;1.00;;;;;;;;;;5073403;28;20052;-36
2023/05/06 03:21:17;;;;;;;0.93;0.93;;;18.40;70.60;;;;;;5057357;28;20143;-36
2023/05/06 03:23:45;;;;;;;1.20;1.00;;;18.90;52.70;;;;;;5053511;28;20144;-38
2023/05/06 03:26:12;;;;;;;0.90;0.90;;;19.10;70.70;;;;;;5053362;28;20045;-37
2023/05/06 03:28:38;;;;;;;0.98;0.90;;;19.80;56.90;;;;;;5053246;28;20131;-34
2023/05/06 03:31:05;;;;;;;0.98;0.85;;;18.90;71.00;;;;;;5053155;28;20071;-35
2023/05/06 03:33:32;;;;;;;1.00;0.95;;;19.00;70.60;;;;;;5052966;28;20486;-38
2023/05/06 03:35:59;;;;;;;0.93;0.90;;;;;;;;;;5071339;28;20128;-35
2023/05/06 03:38:26;;;;;;;0.90;0.90;;;18.40;70.70;;;;;;5073110;28;20484;-39
2023/05/06 03:40:54;;;;;;;1.08;0.98;;;18.80;52.70;;;;;;5073254;28;20124;-33
2023/05/06 03:43:21;;;;;;;0.90;0.90;;;;;;;;;;5072673;28;20079;-36
2023/05/06 03:45:48;;;;;;;1.70;1.00;;;18.50;70.40;;;;;;5073018;28;20068;-39
2023/05/06 03:48:15;;;;;;;0.80;0.80;;;;;;;;;;5072955;28;20051;-37
2023/05/06 03:50:42;;;;;;;0.90;0.90;;;;;;;;;;5071912;28;20048;-37
2023/05/06 03:53:09;;;;;;;1.10;1.00;;;19.00;70.70;;;;;;5072730;28;20131;-36
2023/05/06 03:55:36;;;;;;;0.88;0.85;;;19.60;71.00;;;;;;5072806;28;20054;-37
2023/05/06 03:58:04;;;;;;;0.80;0.80;;;19.10;70.70;;;;;;5072697;28;20474;-38
2023/05/06 04:00:30;;;;;;;0.90;0.90;;;19.20;70.90;;;;;;5071511;28;20127;-35
2023/05/06 04:02:58;;;;;;;1.05;0.95;;;;;;;;;;5071624;28;20064;-34
2023/05/06 04:05:24;;;;;;;0.90;0.90;;;18.40;59.00;;;;;;5072574;28;20501;-37
2023/05/06 04:07:51;;;;;;;0.80;0.80;;;18.50;70.50;;;;;;5072578;28;20131;-36
2023/05/06 04:10:18;;;;;;;0.82;0.82;;;18.50;55.20;;;;;;5072159;28;20052;-38
2023/05/06 04:12:46;;;;;;;0.98;0.90;;;;;;;;;;5072497;28;20131;-38
2023/05/06 04:15:14;;;;;;;0.88;0.88;;;18.50;71.40;;;;;;5072616;28;20052;-37
2023/05/06 04:17:40;;;;;;;0.90;0.90;;;18.90;71.60;;;;;;5071120;28;20053;-39
2023/05/06 04:20:10;;;;;;;0.82;0.82;;;19.10;70.90;;;;;;5052378;28;20088;-38
2023/05/06 04:22:37;;;;;;;0.90;0.90;;;18.40;69.30;;;;;;5052249;28;20055;-36
2023/05/06 04:25:04;;;;;;;0.90;0.90;;;19.20;53.00;;;;;;5052161;28;20128;-35
2023/05/06 04:27:31;;;;;;;0.77;0.77;;;19.20;63.20;;;;;;5052134;28;20044;-37
2023/05/06 04:29:57;;;;;;;0.82;0.82;;;19.80;71.30;;;;;;5053075;28;20057;-40
2023/05/06 04:32:25;;;;;;;1.10;1.00;;;18.70;52.70;;;;;;5071198;28;20046;-36
2023/05/06 04:34:52;;;;;;;1.30;1.10;;;19.30;71.10;;;;;;5071972;28;20044;-36
2023/05/06 04:37:19;;;;;;;1.17;1.08;;;18.40;70.50;;;;;;5071631;28;20127;-36
2023/05/06 04:39:47;;;;;;;0.80;0.80;;;;;;;;;;5071700;28;20094;-34
2023/05/06 04:42:15;;;;;;;1.10;0.90;;;18.60;71.10;;;;;;5071761;28;20102;-37
2023/05/06 04:44:42;;;;;;;1.02;0.88;;;18.40;60.30;;;;;;5071745;28;20131;-37
2023/05/06 04:47:09;;;;;;;1.10;1.00;;;;;;;;;;5071723;28;20119;-33
2023/05/06 04:49:37;;;;;;;1.10;1.00;;;19.10;70.90;;;;;;5071652;28;20084;-37
2023/05/06 04:52:04;;;;;;;0.80;0.80;;;18.70;57.10;;;;;;5072238;28;20045;-36
2023/05/06 04:54:31;;;;;;;0.90;0.90;;;;;;;;;;5071582;28;20057;-36
2023/05/06 04:56:58;;;;;;;0.80;0.80;;;17.30;70.00;;;;;;5072031;28;20120;-35
2023/05/06 04:59:25;;;;;;;0.90;0.90;;;18.70;67.00;;;;;;5071936;28;20127;-38
2023/05/06 05:01:51;;;;;;;0.75;0.75;;;18.50;60.10;;;;;;5070819;28;20062;-34
2023/05/06 05:04:18;;;;;;;1.10;1.00;;;;;;;;;;5071599;28;20052;-37
2023/05/06 05:06:47;;;;;;;0.90;0.90;;;18.60;52.70;;;;;;5070558;28;20131;-36
2023/05/06 05:09:14;;;;;;;0.85;0.85;;;;;;;;;;5071513;28;20054;-34
2023/05/06 05:11:40;;;;;;;0.90;0.90;;;18.40;71.00;;;;;;5073029;28;20083;-36
2023/05/06 05:14:07;;;;;;;1.15;1.05;;;;;;;;;;5078143;28;20045;-36
2023/05/06 05:16:34;;;;;;;0.85;0.85;;;18.80;70.10;;;;;;5071486;28;20045;-37
2023/05/06 05:19:01;;;;;;;0.80;0.80;;;18.20;71.00;;;;;;5058325;28;20132;-38
2023/05/06 05:21:28;;;;;;;0.90;0.90;;;;;;;;;;5058005;28;20127;-35
2023/05/06 05:23:56;;;;;;;0.82;0.82;;;18.50;71.10;;;;;;5057914;28;20061;-37
2023/05/06 05:26:23;;;;;;;1.10;1.00;;;18.40;70.70;;;;;;5060302;28;20135;-39
2023/05/06 05:28:50;;;;;;;1.05;1.00;;;;;;;;;;5078182;28;20048;-36
2023/05/06 05:31:17;;;;;;;0.93;0.90;;;18.40;59.10;;;;;;5077464;28;20055;-38
2023/05/06 05:33:43;;;;;;;1.00;1.00;;;18.30;71.50;;;;;;5077704;28;20049;-36
2023/05/06 05:36:14;;;;;;;0.90;0.90;;;;;;;;;;5077639;28;20119;-34
2023/05/06 05:38:41;;;;;;;0.80;0.80;;;;;;;;;;5078340;28;20053;-35
2023/05/06 05:41:09;;;;;;;1.00;0.90;;;18.50;52.70;;;;;;5077942;28;20068;-39
2023/05/06 05:43:36;;;;;;;1.10;1.00;;;18.00;70.70;;;;;;5077780;28;20422;-37
2023/05/06 05:46:03;;;;;;;0.88;0.88;;;;;;;;;;5077231;28;20140;-34
2023/05/06 05:48:31;;;;;;;1.10;0.95;;;18.60;71.20;;;;;;5077767;28;20131;-35
2023/05/06 05:50:58;;;;;;;0.95;0.90;;;17.40;70.60;;;;;;5077890;28;20049;-39
2023/05/06 05:53:24;;;;;;;0.80;0.80;;;18.60;70.90;;;;;;5078105;28;20123;-36
2023/05/06 05:55:51;;;;;;;0.80;0.80;;;17.70;60.50;;;;;;5077953;28;20054;-37
2023/05/06 05:58:19;;;;;;;0.85;0.85;;;18.50;67.10;;;;;;5077900;28;20211;-38
2023/05/06 06:00:46;;;;;;;1.75;1.15;;;;;;;;;;5077394;28;20080;-36
2023/05/06 06:03:13;;;;;;;1.10;1.00;;;;;;;;;;5077421;28;20046;-34
2023/05/06 06:05:40;;;;;;;1.02;0.95;;;18.30;71.00;;;;;;5077896;28;20127;-40
2023/05/06 06:08:07;;;;;;;1.23;1.13;;;19.40;71.30;;;;;;5077583;28;20102;-40
2023/05/06 06:10:34;;;;;;;1.00;0.90;;;19.10;69.30;;;;;;5077694;28;20056;-37
2023/05/06 06:13:01;;;;;;;1.13;1.02;;;18.50;71.70;;;;;;5077489;28;20105;-37
2023/05/06 06:15:30;;;;;;;0.90;0.90;;;18.50;52.70;;;;;;5077729;28;20083;-38
2023/05/06 06:17:57;;;;;;;1.27;1.17;;;18.90;71.00;;;;;;5060644;28;20099;-40
2023/05/06 06:20:24;;;;;;;1.10;1.00;;;;;;;;;;5057574;28;20470;-36
2023/05/06 06:22:51;;;;;;;1.17;1.08;;;;;;;;;;5059584;28;20044;-35
2023/05/06 06:25:18;;;;;;;1.08;1.00;;;;;;;;;;5074785;28;20132;-36
2023/05/06 06:27:45;;;;;;;1.20;1.10;;;18.80;71.30;;;;;;5074677;28;20114;-36
2023/05/06 06:30:12;;;;;;;1.20;1.10;;;17.70;52.30;;;;;;5074249;28;20489;-36
2023/05/06 06:32:49;;;;;;;1.23;1.10;;;19.00;71.40;;;;;;5073108;28;20127;-35
2023/05/06 06:35:16;;;;;;;1.30;1.20;;;18.10;70.90;;;;;;5074569;28;20048;-37
2023/05/06 06:37:42;;;;;;;1.58;1.27;;;18.60;64.30;;;;;;5074069;28;20044;-35
2023/05/06 06:40:10;;;;;;;1.20;1.10;;;18.10;70.90;;;;;;5074168;28;20152;-36
2023/05/06 06:42:37;;;;;;;1.40;1.20;;;18.20;71.00;;;;;;5074050;28;20045;-35
2023/05/06 06:45:04;;;;;;;1.30;1.13;;;18.60;71.00;;;;;;5073707;28;20131;-36
2023/05/06 06:47:31;;;;;;;1.40;1.20;;;;;;;;;;5054298;28;20049;-38
2023/05/06 06:49:59;;;;;;;1.30;1.20;;;18.50;71.30;;;;;;5054156;28;20048;-36
2023/05/06 06:52:27;;;;;;;1.30;1.20;;;;;;;;;;5056483;28;20120;-37
2023/05/06 06:54:53;;;;;;;1.30;1.20;;;18.80;71.40;;;;;;5059425;28;20057;-35
2023/05/06 06:57:20;;;;;;;1.40;1.25;;;18.30;62.80;;;;;;5061745;28;20433;-36
2023/05/06 06:59:49;;;;;;;1.20;1.10;;;18.20;60.60;;;;;;5073339;28;20132;-34
2023/05/06 07:02:16;;;;;;;1.17;1.08;;;;;;;;;;5053472;28;20124;-36
2023/05/06 07:04:43;;;;;;;1.15;1.05;;;;;;;;;;5053803;28;20173;-33
2023/05/06 07:07:11;;;;;;;1.50;1.10;;;17.50;70.30;;;;;;5061845;28;20040;-36
2023/05/06 07:09:38;;;;;;;1.27;1.15;;;18.30;70.70;;;;;;5073757;28;20143;-37
2023/05/06 07:12:05;;;;;;;1.10;1.00;;;18.60;52.70;;;;;;5073537;28;20044;-33
2023/05/06 07:14:32;;;;;;;1.27;1.17;;;18.40;71.50;;;;;;5071639;28;20476;-36
2023/05/06 07:16:59;;;;;;;1.30;1.20;;;18.20;70.40;;;;;;5053602;28;20130;-36
2023/05/06 07:19:26;;;;;;;1.38;1.20;;;19.90;71.10;;;;;;5060352;28;20056;-37
2023/05/06 07:21:53;;;;;;;1.25;1.15;;;19.40;70.90;;;;;;5073944;28;20123;-37
2023/05/06 07:24:21;;;;;;;1.58;1.40;;;19.00;52.50;;;;;;5073461;28;20132;-33
2023/05/06 07:26:48;;;;;;;2.80;1.10;;;;;;;;;;5073646;28;20074;-33
2023/05/06 07:29:14;;;;;;;1.77;1.30;;;19.30;71.10;;;;;;5073562;28;20131;-38
2023/05/06 07:31:41;;;;;;;1.20;1.10;;;;;;;;;;5072920;28;20055;-35
2023/05/06 07:34:08;;;;;;;1.38;1.20;;;19.70;69.40;;;;;;5072721;28;20136;-35
2023/05/06 07:36:39;;;;;;;1.30;1.20;;;20.00;70.40;;;;;;5072237;28;20127;-35
2023/05/06 07:39:06;;;;;;;1.40;1.30;;;19.10;69.70;;;;;;5073438;28;20049;-36
2023/05/06 07:41:34;;;;;;;1.70;1.20;;;19.50;52.00;;;;;;5072946;28;20484;-34
2023/05/06 07:44:00;;;;;;;1.30;1.20;;;19.50;59.70;;;;;;5072603;28;20135;-37
2023/05/06 07:46:27;;;;;;;1.30;1.20;;;19.30;69.40;;;;;;5072310;28;20052;-38
2023/05/06 07:48:54;;;;;;;1.77;1.20;;;20.00;69.60;;;;;;5072911;28;20082;-35
2023/05/06 07:51:21;;;;;;;1.30;1.20;;;19.70;60.30;;;;;;5072788;28;20079;-37
2023/05/06 07:53:47;;;;;;;1.30;1.20;;;19.40;69.40;;;;;;5072808;28;20106;-39
2023/05/06 07:56:14;;;;;;;1.50;1.10;;;20.20;69.30;;;;;;5073310;28;20608;-36
2023/05/06 07:58:42;;;;;;;1.50;1.10;;;20.10;58.50;;;;;;5072910;28;20135;-36
2023/05/06 08:01:09;;;;;;;1.30;1.20;;;20.10;56.40;;;;;;5072153;28;20394;-34
2023/05/06 08:03:35;;;;;;;1.40;1.10;;;20.30;69.50;;;;;;5072168;28;20463;-36
2023/05/06 08:06:02;;;;;;;1.50;1.10;;;20.60;69.10;;;;;;5064647;28;20051;-38
2023/05/06 08:08:29;;;;;;;1.27;1.17;;;;;;;;;;5063027;28;20486;-35
2023/05/06 08:10:57;;;;;;;1.88;1.17;;;20.40;56.50;;;;;;5060333;28;20462;-37
2023/05/06 08:13:24;;;;;;;1.30;1.15;;;20.10;68.60;;;;;;5058429;28;20063;-35
2023/05/06 08:15:52;;;;;;;1.40;1.23;;;20.20;51.00;;;;;;5062518;28;20052;-33
2023/05/06 08:18:19;;;;;;;1.40;1.10;;;;;;;;;;5064628;28;20123;-33
2023/05/06 08:20:46;;;;;;;1.08;0.98;;;20.90;56.90;;;;;;5062985;28;20060;-36
2023/05/06 08:23:13;;;;;;;1.20;1.10;;;20.20;69.30;;;;;;5061023;28;20730;-38
2023/05/06 08:25:40;;;;;;;1.75;1.20;;;20.00;64.70;;;;;;5063026;28;20408;-37
2023/05/06 08:28:06;;;;;;;1.27;1.00;;;20.60;66.80;;;;;;5057909;28;20136;-38
2023/05/06 08:30:33;;;;;;;1.60;1.10;;;21.30;69.20;;;;;;5068597;28;20494;-39
2023/05/06 08:33:02;;;;;;;2.22;1.10;;;21.40;57.90;;;;;;5060706;28;20040;-34
2023/05/06 08:35:28;;;;;;;1.17;1.08;;;20.60;68.40;;;;;;5061138;28;20123;-36
2023/05/06 08:37:55;;;;;;;1.55;1.15;;;20.30;58.70;;;;;;5060592;28;20051;-38
2023/05/06 08:40:23;;;;;;;1.27;1.00;;;;;;;;;;5063014;28;20703;-33
2023/05/06 08:42:50;;;;;;;1.30;1.20;;;20.40;50.70;;;;;;5057024;28;20511;-37
2023/05/06 08:45:17;;;;;;;1.58;1.10;;;20.10;66.00;;;;;;5055952;28;20128;-37
2023/05/06 08:47:44;;;;;;;1.65;1.10;;;20.60;69.00;;;;;;5058034;28;20702;-36
2023/05/06 08:50:12;;;;;;;1.95;1.15;;;20.40;68.30;;;;;;5062295;28;20135;-38
2023/05/06 08:52:39;;;;;;;0.90;0.90;;;19.90;68.10;;;;;;5059646;28;20508;-38
2023/05/06 08:55:07;;;;;;;1.40;1.10;;;20.80;65.30;;;;;;5060435;28;20055;-37
2023/05/06 08:57:34;;;;;;;1.20;1.00;;;19.60;67.40;;;;;;5062665;28;20048;-36
2023/05/06 09:00:01;;;;;;;1.35;1.00;;;20.50;63.50;;;;;;5058293;28;20505;-39
2023/05/06 09:02:27;;;;;;;1.10;1.00;;;19.60;67.50;;;;;;5060084;28;20545;-38
2023/05/06 09:04:55;;;;;;;1.30;1.10;;;20.50;68.80;;;;;;5060642;28;20043;-38
2023/05/06 09:07:24;;;;;;;1.20;1.10;;;20.10;67.90;;;;;;5063611;28;20122;-36
2023/05/06 09:09:51;;;;;;;1.23;1.00;;;;;;;;;;5050858;28;20071;-34
2023/05/06 09:12:18;;;;;;;1.13;0.93;;;20.30;67.80;;;;;;5056767;28;20048;-38
2023/05/06 09:14:45;;;;;;;1.38;1.02;;;;;;;;;;5060853;28;20048;-34
2023/05/06 09:17:22;;;;;;;1.92;1.40;;;20.10;67.70;;;;;;5062960;28;20040;-36
2023/05/06 09:19:50;;;;;;;1.40;1.00;;;20.50;50.50;;;;;;5066598;28;20049;-34
2023/05/06 09:22:17;;;;;;;1.33;1.10;;;;;;;;;;5061396;28;20048;-35
2023/05/06 09:24:46;;;;;;;2.22;1.00;;;20.80;68.30;;;;;;5071130;28;20045;-35
2023/05/06 09:27:12;;;;;;;1.15;1.00;;;20.50;68.10;;;;;;5075416;28;20392;-37
2023/05/06 09:29:39;;;;;;;1.70;1.20;;;;;;;;;;5080440;28;20135;-34
2023/05/06 09:32:09;;;;;;;1.27;1.10;;;20.80;67.60;;;;;;5058868;28;20052;-38
2023/05/06 09:34:37;;;;;;;1.65;1.10;;;;;;;;;;5081956;28;20048;-36
2023/05/06 09:37:05;;;;;;;1.67;0.90;;;19.80;66.90;;;;;;5074004;28;20048;-38
2023/05/06 09:39:32;;;;;;;1.25;0.93;;;;;;;;;;5083326;28;20044;-33
2023/05/06 09:42:01;;;;;;;1.40;0.98;;;20.60;67.30;;;;;;5081233;28;20124;-35
2023/05/06 09:44:27;;;;;;;1.02;0.90;;;20.60;67.30;;;;;;5082290;28;20052;-39
2023/05/06 09:46:54;;;;;;;1.20;1.00;;;20.40;60.70;;;;;;5077824;28;20126;-35
2023/05/06 09:49:21;;;;;;;1.15;0.95;;;20.30;67.00;;;;;;5065423;28;20502;-35
2023/05/06 09:51:50;;;;;;;0.93;0.85;;;20.40;61.10;;;;;;5069945;28;20084;-35
2023/05/06 09:54:17;;;;;;;1.10;1.00;;;19.80;66.60;;;;;;5080999;28;20044;-38
2023/05/06 09:56:45;;;;;;;1.58;1.02;;;;;;;;;;5082760;28;20139;-36
2023/05/06 09:59:13;;;;;;;1.83;0.90;;;21.10;68.10;;;;;;5080611;28;20044;-39
2023/05/06 10:01:40;;;;;;;1.70;0.90;;;21.30;67.70;;;;;;5080455;28;20131;-38
2023/05/06 10:04:09;;;;;;;1.48;0.95;;;21.20;54.20;;;;;;5065362;28;20499;-34
2023/05/06 10:06:38;;;;;;;1.60;1.10;;;21.10;67.10;;;;;;5071098;28;20049;-35
2023/05/06 10:09:05;;;;;;;1.23;1.00;;;;;;;;;;5088477;28;20056;-35
2023/05/06 10:11:32;;;;;;;0.90;0.85;;;21.10;67.10;;;;;;5081273;28;20538;-39
2023/05/06 10:13:58;;;;;;;1.00;0.90;;;20.30;66.60;;;;;;5075342;28;20116;-38
2023/05/06 10:16:26;;;;;;;0.80;0.80;;;20.70;64.10;;;;;;5083787;28;20127;-37
2023/05/06 10:18:54;;;;;;;2.30;0.88;;;21.20;62.90;;;;;;5083153;28;20123;-37
2023/05/06 10:21:25;;;;;;;1.35;0.90;;;21.10;49.70;;;;;;5075823;28;20450;-32
2023/05/06 10:23:55;;;;;;;1.00;0.90;;;21.60;68.00;;;;;;5072477;28;20064;-38
2023/05/06 10:26:21;;;;;;;0.98;0.90;;;21.40;67.40;;;;;;5064121;28;20055;-38
2023/05/06 10:28:51;;;;;;;1.00;0.90;;;21.00;67.40;;;;;;5072816;28;20137;-37
2023/05/06 10:31:18;;;;;;;0.98;0.80;;;21.20;67.00;;;;;;5081695;28;20127;-36
2023/05/06 10:33:47;;;;;;;0.82;0.82;;;21.20;49.70;;;;;;5084785;28;20050;-38
2023/05/06 10:36:17;;;;;;;1.02;0.80;;;20.90;58.60;;;;;;5073640;28;20473;-38
2023/05/06 10:38:45;;;;;;;1.13;0.95;;;21.20;49.70;;;;;;5075328;28;20049;-34
2023/05/06 10:41:12;;;;;;;1.60;0.90;;;;;;;;;;5085597;28;20044;-32
2023/05/06 10:43:40;;;;;;;1.27;0.90;;;21.20;49.60;;;;;;5078034;28;20116;-38
2023/05/06 10:46:07;;;;;;;1.02;0.80;;;21.20;66.80;;;;;;5075674;28;20052;-39
2023/05/06 10:48:35;;;;;;;2.63;0.95;;;21.40;67.80;;;;;;5077194;28;20497;-35
2023/05/06 10:51:22;;;;;;;1.40;0.90;;;21.20;49.70;;;;;;5077654;28;20062;-34
2023/05/06 10:54:01;;;;;;;0.73;0.73;;;20.80;67.10;;;;;;5077218;28;20399;-37
2023/05/06 10:56:28;;;;;;;1.25;0.82;;;;;;;;;;5081426;28;20109;-36
2023/05/06 10:58:55;;;;;;;0.88;0.80;;;;;;;;;;5057433;28;20556;-37
2023/05/06 11:01:22;;;;;;;0.80;0.80;;;20.50;67.50;;;;;;5066013;28;20642;-38
2023/05/06 11:03:50;;;;;;;0.90;0.88;;;21.30;63.40;;;;;;5071686;28;20468;-38
2023/05/06 11:09:17;;;;;;;0.80;0.80;;;21.10;63.50;;;;;;5095520;27;20762;-36
2023/05/06 11:11:51;;;;;;;0.90;0.90;;;20.70;68.00;;;;;;5081315;28;20055;-38
2023/05/06 11:14:28;;;;;;;0.70;0.70;;;20.60;67.10;;;;;;5086788;28;20044;-36
2023/05/06 11:16:56;;;;;;;1.27;0.80;;;21.00;49.90;;;;;;5078160;28;20051;-36
2023/05/06 11:19:23;;;;;;;0.90;0.82;;;21.00;49.90;;;;;;5084738;28;20048;-35
2023/05/06 11:21:50;;;;;;;0.80;0.80;;;21.80;59.20;;;;;;5086175;28;20552;-32
2023/05/06 11:24:24;;;;;;;1.33;0.80;;;21.10;49.90;;;;;;5067143;28;20049;-35
2023/05/06 11:26:51;;;;;;;2.03;0.90;;;;;;;;;;5072719;28;20120;-32
2023/05/06 11:29:18;;;;;;;0.80;0.80;;;20.90;67.30;;;;;;5072117;28;20127;-32
2023/05/06 11:31:44;;;;;;;0.73;0.73;;;20.90;67.50;;;;;;5085893;28;20441;-32
2023/05/06 11:34:13;;;;;;;1.00;0.90;;;21.00;56.10;;;;;;5084077;28;20139;-33
2023/05/06 11:36:51;;;;;;;1.35;0.80;;;21.30;67.00;;;;;;5079683;28;20049;-33
2023/05/06 11:39:18;;;;;;;0.77;0.77;;;21.00;66.20;;;;;;5082187;28;20072;-32
2023/05/06 11:41:46;;;;;;;1.00;0.80;;;21.10;50.00;;;;;;5084562;28;20203;-32
2023/05/06 11:44:23;;;;;;;1.33;0.90;;;20.10;66.80;;;;;;5075823;28;20144;-31
2023/05/06 11:46:50;;;;;;;1.70;1.00;;;21.00;50.00;;;;;;5083727;28;20127;-34
2023/05/06 11:49:16;;;;;;;0.80;0.80;;;21.30;67.60;;;;;;5085453;28;20051;-32
2023/05/06 11:51:43;;;;;;;0.75;0.70;;;21.30;55.70;;;;;;5077845;28;20066;-32
2023/05/06 11:54:10;;;;;;;1.15;0.90;;;21.00;50.20;;;;;;5084005;28;20050;-35
2023/05/06 11:56:49;;;;;;;1.75;1.00;;;21.70;68.10;;;;;;5083914;28;20508;-31
2023/05/06 11:59:17;;;;;;;1.50;1.20;;;21.40;53.80;;;;;;5074216;28;20125;-34
2023/05/06 12:01:44;;;;;;;1.05;0.82;;;;;;;;;;5082360;28;20131;-31
2023/05/06 12:04:11;;;;;;;1.00;0.85;;;21.30;68.90;;;;;;5084620;28;20049;-33
2023/05/06 12:06:39;;;;;;;1.55;0.88;;;;;;;;;;5084045;28;20046;-35
2023/05/06 12:09:06;;;;;;;1.45;1.00;;;20.60;67.80;;;;;;5084729;28;20378;-32
2023/05/06 12:11:33;;;;;;;2.38;1.00;;;20.70;68.80;;;;;;5083894;28;20044;-32
2023/05/06 12:14:01;;;;;;;0.90;0.90;;;20.80;50.70;;;;;;5083921;28;20127;-33
2023/05/06 12:16:28;;;;;;;1.23;0.90;;;;;;;;;;5076597;28;20080;-31
2023/05/06 12:18:55;;;;;;;1.40;1.00;;;;;;;;;;5074069;28;20131;-33
2023/05/06 12:21:23;;;;;;;0.70;0.70;;;21.20;69.20;;;;;;5063838;28;20048;-33
2023/05/06 12:23:54;;;;;;;1.52;0.80;;;21.70;69.00;;;;;;5067216;28;20406;-32
2023/05/06 12:26:21;;;;;;;0.90;0.90;;;20.70;68.20;;;;;;5070558;28;20076;-31
2023/05/06 12:28:47;;;;;;;1.55;0.98;;;21.90;68.70;;;;;;5070563;28;20041;-32
2023/05/06 12:31:22;;;;;;;1.10;0.80;;;20.40;67.90;;;;;;5062071;28;20047;-31
2023/05/06 12:33:49;;;;;;;;;;;20.70;50.70;;;;;;5067026;28;20044;-33
2023/05/06 12:36:16;;;;;;;0.70;0.70;;;20.50;69.00;;;;;;5058716;28;19921;-31
2023/05/06 12:38:51;;;;;;;0.75;0.75;;;20.70;50.80;;;;;;5067336;28;20549;-34
2023/05/06 12:41:18;;;;;;;2.45;0.90;;;20.80;57.80;;;;;;5072999;28;20049;-32
2023/05/06 12:43:44;;;;;;;1.52;0.93;;;21.10;68.40;;;;;;5069107;28;20128;-31
2023/05/06 12:46:12;;;;;;;1.02;0.80;;;;;;;;;;5057620;28;20051;-35
2023/05/06 12:48:41;;;;;;;1.75;1.00;;;20.60;50.90;;;;;;5071268;28;20386;-31
2023/05/06 12:51:18;;;;;;;1.58;0.90;;;20.20;68.90;;;;;;5059208;28;20489;-31
2023/05/06 12:53:45;;;;;;;1.02;0.90;;;20.10;69.00;;;;;;5065774;28;20040;-31
2023/05/06 12:56:11;;;;;;;1.02;0.90;;;21.00;68.60;;;;;;5070483;28;20124;-31
2023/05/06 12:58:38;;;;;;;1.00;0.90;;;20.70;64.00;;;;;;5069803;28;20127;-31
2023/05/06 13:01:06;;;;;;;3.47;1.38;;;20.60;69.50;;;;;;5069283;28;20044;-31
2023/05/06 13:03:33;;;;;;;0.90;0.90;;;20.30;64.80;;;;;;5068117;28;20415;-31
2023/05/06 13:06:01;;;;;;;0.93;0.90;;;20.60;51.10;;;;;;5060750;28;20613;-37
2023/05/06 13:08:28;;;;;;;1.00;0.90;;;;;;;;;;5069149;28;20059;-35
2023/05/06 13:10:55;;;;;;;0.82;0.80;;;19.90;69.00;;;;;;5071108;28;20049;-31
2023/05/06 13:13:22;;;;;;;1.17;0.93;;;20.30;68.80;;;;;;5071222;28;20153;-31